sensor_id;sensor_type;location;lat;lon;timestamp;P1;durP1;ratioP1;P2;durP2;ratioP2
55312;SDS011;46892;45.668;11.756;2024-01-07T00:00:03;0.87;;;0.70;;
55312;SDS011;46892;45.668;11.756;2024-01-07T00:02:29;1.30;;;0.90;;
55312;SDS011;46892;45.668;11.756;2024-01-07T00:04:58;1.00;;;0.67;;
55312;SDS011;46892;45.668;11.756;2024-01-07T00:07:24;1.37;;;1.00;;
55312;SDS011;46892;45.668;11.756;2024-01-07T00:09:49;1.20;;;0.80;;
55312;SDS011;46892;45.668;11.756;2024-01-07T00:12:15;1.67;;;1.20;;
55312;SDS011;46892;45.668;11.756;2024-01-07T00:14:42;1.30;;;1.10;;
55312;SDS011;46892;45.668;11.756;2024-01-07T00:17:08;1.37;;;0.97;;
55312;SDS011;46892;45.668;11.756;2024-01-07T00:19:35;2.27;;;1.10;;
55312;SDS011;46892;45.668;11.756;2024-01-07T00:22:02;2.23;;;1.57;;
55312;SDS011;46892;45.668;11.756;2024-01-07T00:24:28;1.33;;;0.80;;
55312;SDS011;46892;45.668;11.756;2024-01-07T00:26:54;0.63;;;0.63;;
55312;SDS011;46892;45.668;11.756;2024-01-07T00:29:20;1.00;;;0.77;;
55312;SDS011;46892;45.668;11.756;2024-01-07T00:31:46;1.93;;;1.00;;
55312;SDS011;46892;45.668;11.756;2024-01-07T00:34:12;0.80;;;0.80;;
55312;SDS011;46892;45.668;11.756;2024-01-07T00:36:38;1.23;;;1.13;;
55312;SDS011;46892;45.668;11.756;2024-01-07T00:39:03;1.03;;;1.00;;
55312;SDS011;46892;45.668;11.756;2024-01-07T00:41:29;1.07;;;0.60;;
55312;SDS011;46892;45.668;11.756;2024-01-07T00:43:55;0.97;;;0.70;;
55312;SDS011;46892;45.668;11.756;2024-01-07T00:46:21;4.43;;;3.40;;
55312;SDS011;46892;45.668;11.756;2024-01-07T00:48:47;1.30;;;1.20;;
55312;SDS011;46892;45.668;11.756;2024-01-07T00:51:13;2.10;;;0.93;;
55312;SDS011;46892;45.668;11.756;2024-01-07T00:53:39;1.87;;;1.00;;
55312;SDS011;46892;45.668;11.756;2024-01-07T00:56:05;2.00;;;1.80;;
55312;SDS011;46892;45.668;11.756;2024-01-07T00:58:31;2.50;;;1.17;;
55312;SDS011;46892;45.668;11.756;2024-01-07T01:00:57;7.47;;;5.47;;
55312;SDS011;46892;45.668;11.756;2024-01-07T01:03:25;3.20;;;2.10;;
55312;SDS011;46892;45.668;11.756;2024-01-07T01:05:51;3.03;;;1.77;;
55312;SDS011;46892;45.668;11.756;2024-01-07T01:08:17;3.90;;;3.10;;
55312;SDS011;46892;45.668;11.756;2024-01-07T01:10:43;1.43;;;0.90;;
55312;SDS011;46892;45.668;11.756;2024-01-07T01:13:09;2.27;;;1.80;;
55312;SDS011;46892;45.668;11.756;2024-01-07T01:15:35;4.47;;;3.57;;
55312;SDS011;46892;45.668;11.756;2024-01-07T01:18:01;1.60;;;0.90;;
55312;SDS011;46892;45.668;11.756;2024-01-07T01:20:26;1.13;;;0.67;;
55312;SDS011;46892;45.668;11.756;2024-01-07T01:22:52;0.73;;;0.60;;
55312;SDS011;46892;45.668;11.756;2024-01-07T01:25:18;3.77;;;0.80;;
55312;SDS011;46892;45.668;11.756;2024-01-07T01:27:44;2.67;;;2.17;;
55312;SDS011;46892;45.668;11.756;2024-01-07T01:30:10;0.97;;;0.60;;
55312;SDS011;46892;45.668;11.756;2024-01-07T01:32:36;1.03;;;0.63;;
55312;SDS011;46892;45.668;11.756;2024-01-07T01:35:04;1.33;;;0.40;;
55312;SDS011;46892;45.668;11.756;2024-01-07T01:37:30;1.63;;;0.87;;
55312;SDS011;46892;45.668;11.756;2024-01-07T01:39:57;0.80;;;0.60;;
55312;SDS011;46892;45.668;11.756;2024-01-07T01:42:23;1.00;;;0.60;;
55312;SDS011;46892;45.668;11.756;2024-01-07T01:44:49;1.00;;;0.70;;
55312;SDS011;46892;45.668;11.756;2024-01-07T01:47:15;1.30;;;0.70;;
55312;SDS011;46892;45.668;11.756;2024-01-07T01:49:41;0.80;;;0.70;;
55312;SDS011;46892;45.668;11.756;2024-01-07T01:52:08;1.83;;;0.80;;
55312;SDS011;46892;45.668;11.756;2024-01-07T01:54:34;1.37;;;0.90;;
55312;SDS011;46892;45.668;11.756;2024-01-07T01:57:00;1.70;;;1.00;;
55312;SDS011;46892;45.668;11.756;2024-01-07T01:59:26;1.53;;;0.93;;
55312;SDS011;46892;45.668;11.756;2024-01-07T02:01:54;1.70;;;0.87;;
55312;SDS011;46892;45.668;11.756;2024-01-07T02:04:20;1.60;;;1.00;;
55312;SDS011;46892;45.668;11.756;2024-01-07T02:06:46;1.53;;;0.80;;
55312;SDS011;46892;45.668;11.756;2024-01-07T02:09:12;1.73;;;0.93;;
55312;SDS011;46892;45.668;11.756;2024-01-07T02:11:38;2.57;;;1.00;;
55312;SDS011;46892;45.668;11.756;2024-01-07T02:14:03;2.03;;;0.70;;
55312;SDS011;46892;45.668;11.756;2024-01-07T02:16:29;1.60;;;0.83;;
55312;SDS011;46892;45.668;11.756;2024-01-07T02:18:55;0.73;;;0.60;;
55312;SDS011;46892;45.668;11.756;2024-01-07T02:21:20;1.03;;;0.60;;
55312;SDS011;46892;45.668;11.756;2024-01-07T02:23:46;0.73;;;0.40;;
55312;SDS011;46892;45.668;11.756;2024-01-07T02:26:12;0.80;;;0.60;;
55312;SDS011;46892;45.668;11.756;2024-01-07T02:28:38;0.50;;;0.40;;
55312;SDS011;46892;45.668;11.756;2024-01-07T02:31:03;0.73;;;0.50;;
55312;SDS011;46892;45.668;11.756;2024-01-07T02:33:29;0.83;;;0.60;;
55312;SDS011;46892;45.668;11.756;2024-01-07T02:35:56;0.93;;;0.70;;
55312;SDS011;46892;45.668;11.756;2024-01-07T02:38:21;1.00;;;0.50;;
55312;SDS011;46892;45.668;11.756;2024-01-07T02:40:47;0.43;;;0.43;;
55312;SDS011;46892;45.668;11.756;2024-01-07T02:43:13;0.73;;;0.50;;
55312;SDS011;46892;45.668;11.756;2024-01-07T02:45:39;1.50;;;0.30;;
55312;SDS011;46892;45.668;11.756;2024-01-07T02:48:04;1.33;;;0.70;;
55312;SDS011;46892;45.668;11.756;2024-01-07T02:50:31;0.63;;;0.50;;
55312;SDS011;46892;45.668;11.756;2024-01-07T02:52:57;0.53;;;0.40;;
55312;SDS011;46892;45.668;11.756;2024-01-07T02:55:23;0.23;;;0.20;;
55312;SDS011;46892;45.668;11.756;2024-01-07T02:57:48;0.30;;;0.23;;
55312;SDS011;46892;45.668;11.756;2024-01-07T03:00:14;0.20;;;0.20;;
55312;SDS011;46892;45.668;11.756;2024-01-07T03:02:40;0.20;;;0.20;;
55312;SDS011;46892;45.668;11.756;2024-01-07T03:05:06;0.40;;;0.40;;
55312;SDS011;46892;45.668;11.756;2024-01-07T03:07:32;1.53;;;0.33;;
55312;SDS011;46892;45.668;11.756;2024-01-07T03:09:58;0.50;;;0.30;;
55312;SDS011;46892;45.668;11.756;2024-01-07T03:12:24;0.70;;;0.37;;
55312;SDS011;46892;45.668;11.756;2024-01-07T03:14:49;0.30;;;0.30;;
55312;SDS011;46892;45.668;11.756;2024-01-07T03:17:15;0.77;;;0.33;;
55312;SDS011;46892;45.668;11.756;2024-01-07T03:19:42;0.43;;;0.30;;
55312;SDS011;46892;45.668;11.756;2024-01-07T03:22:08;0.20;;;0.20;;
55312;SDS011;46892;45.668;11.756;2024-01-07T03:24:34;0.60;;;0.30;;
55312;SDS011;46892;45.668;11.756;2024-01-07T03:26:59;0.50;;;0.20;;
55312;SDS011;46892;45.668;11.756;2024-01-07T03:29:25;0.30;;;0.30;;
55312;SDS011;46892;45.668;11.756;2024-01-07T03:31:51;0.67;;;0.33;;
55312;SDS011;46892;45.668;11.756;2024-01-07T03:34:18;0.40;;;0.40;;
55312;SDS011;46892;45.668;11.756;2024-01-07T03:36:44;0.40;;;0.40;;
55312;SDS011;46892;45.668;11.756;2024-01-07T03:39:10;0.40;;;0.40;;
55312;SDS011;46892;45.668;11.756;2024-01-07T03:41:35;0.30;;;0.30;;
55312;SDS011;46892;45.668;11.756;2024-01-07T03:44:01;0.60;;;0.40;;
55312;SDS011;46892;45.668;11.756;2024-01-07T03:46:27;0.30;;;0.30;;
55312;SDS011;46892;45.668;11.756;2024-01-07T03:48:52;0.70;;;0.43;;
55312;SDS011;46892;45.668;11.756;2024-01-07T03:51:18;1.10;;;0.50;;
55312;SDS011;46892;45.668;11.756;2024-01-07T03:53:44;0.33;;;0.30;;
55312;SDS011;46892;45.668;11.756;2024-01-07T03:56:10;0.50;;;0.37;;
55312;SDS011;46892;45.668;11.756;2024-01-07T03:58:35;4.57;;;4.17;;
55312;SDS011;46892;45.668;11.756;2024-01-07T04:01:01;3.43;;;2.30;;
55312;SDS011;46892;45.668;11.756;2024-01-07T04:03:27;11.67;;;10.60;;
55312;SDS011;46892;45.668;11.756;2024-01-07T04:05:53;0.70;;;0.60;;
55312;SDS011;46892;45.668;11.756;2024-01-07T04:08:19;6.80;;;1.97;;
55312;SDS011;46892;45.668;11.756;2024-01-07T04:10:44;4.53;;;3.63;;
55312;SDS011;46892;45.668;11.756;2024-01-07T04:13:10;3.73;;;2.50;;
55312;SDS011;46892;45.668;11.756;2024-01-07T04:15:36;4.03;;;1.27;;
55312;SDS011;46892;45.668;11.756;2024-01-07T04:18:02;1.73;;;1.37;;
55312;SDS011;46892;45.668;11.756;2024-01-07T04:20:29;1.83;;;0.90;;
55312;SDS011;46892;45.668;11.756;2024-01-07T04:22:56;1.27;;;0.80;;
55312;SDS011;46892;45.668;11.756;2024-01-07T04:25:22;1.30;;;0.80;;
55312;SDS011;46892;45.668;11.756;2024-01-07T04:27:48;3.07;;;0.70;;
55312;SDS011;46892;45.668;11.756;2024-01-07T04:30:14;1.27;;;0.90;;
55312;SDS011;46892;45.668;11.756;2024-01-07T04:32:40;2.43;;;1.57;;
55312;SDS011;46892;45.668;11.756;2024-01-07T04:35:06;2.63;;;2.17;;
55312;SDS011;46892;45.668;11.756;2024-01-07T04:37:32;1.77;;;1.60;;
55312;SDS011;46892;45.668;11.756;2024-01-07T04:39:58;1.33;;;0.83;;
55312;SDS011;46892;45.668;11.756;2024-01-07T04:42:24;0.70;;;0.63;;
55312;SDS011;46892;45.668;11.756;2024-01-07T04:44:50;1.07;;;1.00;;
55312;SDS011;46892;45.668;11.756;2024-01-07T04:47:23;0.73;;;0.60;;
55312;SDS011;46892;45.668;11.756;2024-01-07T04:49:55;0.40;;;0.40;;
55312;SDS011;46892;45.668;11.756;2024-01-07T04:52:22;0.70;;;0.40;;
55312;SDS011;46892;45.668;11.756;2024-01-07T04:54:55;0.67;;;0.40;;
55312;SDS011;46892;45.668;11.756;2024-01-07T04:57:21;0.90;;;0.90;;
55312;SDS011;46892;45.668;11.756;2024-01-07T04:59:47;1.50;;;1.20;;
55312;SDS011;46892;45.668;11.756;2024-01-07T05:02:14;0.40;;;0.40;;
55312;SDS011;46892;45.668;11.756;2024-01-07T05:04:40;5.40;;;0.50;;
55312;SDS011;46892;45.668;11.756;2024-01-07T05:07:06;0.97;;;0.30;;
55312;SDS011;46892;45.668;11.756;2024-01-07T05:09:32;1.47;;;0.40;;
55312;SDS011;46892;45.668;11.756;2024-01-07T05:11:58;2.03;;;1.83;;
55312;SDS011;46892;45.668;11.756;2024-01-07T05:14:24;1.00;;;0.60;;
55312;SDS011;46892;45.668;11.756;2024-01-07T05:16:50;2.37;;;1.10;;
55312;SDS011;46892;45.668;11.756;2024-01-07T05:19:16;0.53;;;0.50;;
55312;SDS011;46892;45.668;11.756;2024-01-07T05:21:42;0.67;;;0.53;;
55312;SDS011;46892;45.668;11.756;2024-01-07T05:24:07;0.43;;;0.43;;
55312;SDS011;46892;45.668;11.756;2024-01-07T05:26:42;0.50;;;0.50;;
55312;SDS011;46892;45.668;11.756;2024-01-07T05:29:09;0.37;;;0.37;;
55312;SDS011;46892;45.668;11.756;2024-01-07T05:31:35;2.20;;;2.00;;
55312;SDS011;46892;45.668;11.756;2024-01-07T05:34:01;0.60;;;0.40;;
55312;SDS011;46892;45.668;11.756;2024-01-07T05:36:26;0.27;;;0.27;;
55312;SDS011;46892;45.668;11.756;2024-01-07T05:38:52;0.50;;;0.33;;
55312;SDS011;46892;45.668;11.756;2024-01-07T05:41:18;1.67;;;0.30;;
55312;SDS011;46892;45.668;11.756;2024-01-07T05:43:44;0.60;;;0.30;;
55312;SDS011;46892;45.668;11.756;2024-01-07T05:46:09;0.30;;;0.30;;
55312;SDS011;46892;45.668;11.756;2024-01-07T05:48:43;0.30;;;0.30;;
55312;SDS011;46892;45.668;11.756;2024-01-07T05:51:10;0.83;;;0.53;;
55312;SDS011;46892;45.668;11.756;2024-01-07T05:53:37;0.47;;;0.30;;
55312;SDS011;46892;45.668;11.756;2024-01-07T05:56:03;0.60;;;0.40;;
55312;SDS011;46892;45.668;11.756;2024-01-07T05:58:29;3.00;;;0.30;;
55312;SDS011;46892;45.668;11.756;2024-01-07T06:00:55;0.60;;;0.47;;
55312;SDS011;46892;45.668;11.756;2024-01-07T06:03:21;1.83;;;0.47;;
55312;SDS011;46892;45.668;11.756;2024-01-07T06:05:47;0.30;;;0.30;;
55312;SDS011;46892;45.668;11.756;2024-01-07T06:08:13;2.27;;;0.50;;
55312;SDS011;46892;45.668;11.756;2024-01-07T06:10:39;1.37;;;0.43;;
55312;SDS011;46892;45.668;11.756;2024-01-07T06:13:05;0.63;;;0.30;;
55312;SDS011;46892;45.668;11.756;2024-01-07T06:15:31;0.23;;;0.23;;
55312;SDS011;46892;45.668;11.756;2024-01-07T06:17:57;0.63;;;0.43;;
55312;SDS011;46892;45.668;11.756;2024-01-07T06:20:23;0.40;;;0.40;;
55312;SDS011;46892;45.668;11.756;2024-01-07T06:22:49;2.33;;;0.50;;
55312;SDS011;46892;45.668;11.756;2024-01-07T06:25:15;1.90;;;0.40;;
55312;SDS011;46892;45.668;11.756;2024-01-07T06:27:41;0.50;;;0.20;;
55312;SDS011;46892;45.668;11.756;2024-01-07T06:30:07;1.30;;;0.40;;
55312;SDS011;46892;45.668;11.756;2024-01-07T06:32:33;0.57;;;0.30;;
55312;SDS011;46892;45.668;11.756;2024-01-07T06:35:00;0.70;;;0.40;;
55312;SDS011;46892;45.668;11.756;2024-01-07T06:37:26;1.47;;;0.80;;
55312;SDS011;46892;45.668;11.756;2024-01-07T06:39:54;0.50;;;0.40;;
55312;SDS011;46892;45.668;11.756;2024-01-07T06:42:20;0.40;;;0.40;;
55312;SDS011;46892;45.668;11.756;2024-01-07T06:44:46;1.60;;;0.60;;
55312;SDS011;46892;45.668;11.756;2024-01-07T06:47:11;1.90;;;0.80;;
55312;SDS011;46892;45.668;11.756;2024-01-07T06:49:37;0.40;;;0.30;;
55312;SDS011;46892;45.668;11.756;2024-01-07T06:52:04;0.40;;;0.40;;
55312;SDS011;46892;45.668;11.756;2024-01-07T06:54:30;0.60;;;0.40;;
55312;SDS011;46892;45.668;11.756;2024-01-07T06:56:56;0.90;;;0.50;;
55312;SDS011;46892;45.668;11.756;2024-01-07T06:59:22;0.87;;;0.60;;
55312;SDS011;46892;45.668;11.756;2024-01-07T07:01:50;2.47;;;0.70;;
55312;SDS011;46892;45.668;11.756;2024-01-07T07:04:22;0.77;;;0.67;;
55312;SDS011;46892;45.668;11.756;2024-01-07T07:06:48;0.67;;;0.50;;
55312;SDS011;46892;45.668;11.756;2024-01-07T07:09:14;0.40;;;0.40;;
55312;SDS011;46892;45.668;11.756;2024-01-07T07:11:40;1.27;;;0.67;;
55312;SDS011;46892;45.668;11.756;2024-01-07T07:14:06;1.17;;;0.80;;
55312;SDS011;46892;45.668;11.756;2024-01-07T07:16:32;1.27;;;0.90;;
55312;SDS011;46892;45.668;11.756;2024-01-07T07:18:58;1.40;;;1.20;;
55312;SDS011;46892;45.668;11.756;2024-01-07T07:21:23;1.83;;;1.40;;
55312;SDS011;46892;45.668;11.756;2024-01-07T07:23:49;1.60;;;1.10;;
55312;SDS011;46892;45.668;11.756;2024-01-07T07:26:15;1.30;;;0.83;;
55312;SDS011;46892;45.668;11.756;2024-01-07T07:28:41;1.93;;;1.10;;
55312;SDS011;46892;45.668;11.756;2024-01-07T07:31:06;2.23;;;1.60;;
55312;SDS011;46892;45.668;11.756;2024-01-07T07:33:32;1.50;;;1.10;;
55312;SDS011;46892;45.668;11.756;2024-01-07T07:35:58;1.80;;;1.43;;
55312;SDS011;46892;45.668;11.756;2024-01-07T07:38:24;2.07;;;1.30;;
55312;SDS011;46892;45.668;11.756;2024-01-07T07:40:50;1.70;;;1.30;;
55312;SDS011;46892;45.668;11.756;2024-01-07T07:43:20;7.40;;;4.83;;
55312;SDS011;46892;45.668;11.756;2024-01-07T07:45:46;4.10;;;2.47;;
55312;SDS011;46892;45.668;11.756;2024-01-07T07:48:12;4.40;;;2.70;;
55312;SDS011;46892;45.668;11.756;2024-01-07T07:50:39;4.27;;;2.57;;
55312;SDS011;46892;45.668;11.756;2024-01-07T07:53:05;2.57;;;1.60;;
55312;SDS011;46892;45.668;11.756;2024-01-07T07:55:31;2.80;;;1.80;;
55312;SDS011;46892;45.668;11.756;2024-01-07T07:57:57;6.43;;;3.63;;
55312;SDS011;46892;45.668;11.756;2024-01-07T08:00:23;6.40;;;3.97;;
55312;SDS011;46892;45.668;11.756;2024-01-07T08:02:49;5.93;;;3.70;;
55312;SDS011;46892;45.668;11.756;2024-01-07T08:05:15;5.57;;;3.37;;
55312;SDS011;46892;45.668;11.756;2024-01-07T08:07:41;4.17;;;2.70;;
55312;SDS011;46892;45.668;11.756;2024-01-07T08:10:07;4.07;;;2.67;;
55312;SDS011;46892;45.668;11.756;2024-01-07T08:12:33;4.10;;;2.60;;
55312;SDS011;46892;45.668;11.756;2024-01-07T08:15:00;3.20;;;2.20;;
55312;SDS011;46892;45.668;11.756;2024-01-07T08:17:25;2.87;;;2.13;;
55312;SDS011;46892;45.668;11.756;2024-01-07T08:19:52;2.57;;;1.80;;
55312;SDS011;46892;45.668;11.756;2024-01-07T08:22:18;3.77;;;2.20;;
55312;SDS011;46892;45.668;11.756;2024-01-07T08:24:44;3.00;;;1.90;;
55312;SDS011;46892;45.668;11.756;2024-01-07T08:27:10;4.67;;;3.27;;
55312;SDS011;46892;45.668;11.756;2024-01-07T08:29:37;4.77;;;2.70;;
55312;SDS011;46892;45.668;11.756;2024-01-07T08:32:03;6.37;;;3.27;;
55312;SDS011;46892;45.668;11.756;2024-01-07T08:34:29;5.17;;;2.70;;
55312;SDS011;46892;45.668;11.756;2024-01-07T08:36:55;6.83;;;4.00;;
55312;SDS011;46892;45.668;11.756;2024-01-07T08:39:20;6.37;;;3.10;;
55312;SDS011;46892;45.668;11.756;2024-01-07T08:41:46;5.43;;;3.13;;
55312;SDS011;46892;45.668;11.756;2024-01-07T08:44:12;5.33;;;3.37;;
55312;SDS011;46892;45.668;11.756;2024-01-07T08:46:38;7.20;;;4.37;;
55312;SDS011;46892;45.668;11.756;2024-01-07T08:49:03;6.27;;;3.10;;
55312;SDS011;46892;45.668;11.756;2024-01-07T08:51:29;4.30;;;2.13;;
55312;SDS011;46892;45.668;11.756;2024-01-07T08:53:56;3.57;;;2.03;;
55312;SDS011;46892;45.668;11.756;2024-01-07T08:56:23;4.00;;;1.73;;
55312;SDS011;46892;45.668;11.756;2024-01-07T08:58:50;3.53;;;2.10;;
55312;SDS011;46892;45.668;11.756;2024-01-07T09:01:17;1.73;;;1.20;;
55312;SDS011;46892;45.668;11.756;2024-01-07T09:03:43;2.47;;;1.47;;
55312;SDS011;46892;45.668;11.756;2024-01-07T09:06:08;2.37;;;1.60;;
55312;SDS011;46892;45.668;11.756;2024-01-07T09:08:34;2.17;;;1.40;;
55312;SDS011;46892;45.668;11.756;2024-01-07T09:11:00;2.83;;;1.27;;
55312;SDS011;46892;45.668;11.756;2024-01-07T09:13:29;1.60;;;1.20;;
55312;SDS011;46892;45.668;11.756;2024-01-07T09:15:54;4.63;;;1.90;;
55312;SDS011;46892;45.668;11.756;2024-01-07T09:18:20;2.87;;;1.13;;
55312;SDS011;46892;45.668;11.756;2024-01-07T09:20:46;2.33;;;1.43;;
55312;SDS011;46892;45.668;11.756;2024-01-07T09:23:12;2.40;;;1.50;;
55312;SDS011;46892;45.668;11.756;2024-01-07T09:25:37;2.57;;;1.23;;
55312;SDS011;46892;45.668;11.756;2024-01-07T09:28:03;2.43;;;1.60;;
55312;SDS011;46892;45.668;11.756;2024-01-07T09:30:30;2.47;;;1.40;;
55312;SDS011;46892;45.668;11.756;2024-01-07T09:32:56;3.10;;;1.57;;
55312;SDS011;46892;45.668;11.756;2024-01-07T09:35:21;3.07;;;1.47;;
55312;SDS011;46892;45.668;11.756;2024-01-07T09:37:47;1.87;;;1.40;;
55312;SDS011;46892;45.668;11.756;2024-01-07T09:40:16;2.90;;;1.47;;
55312;SDS011;46892;45.668;11.756;2024-01-07T09:42:44;1.90;;;1.20;;
55312;SDS011;46892;45.668;11.756;2024-01-07T09:45:10;3.10;;;1.40;;
55312;SDS011;46892;45.668;11.756;2024-01-07T09:47:38;5.17;;;1.50;;
55312;SDS011;46892;45.668;11.756;2024-01-07T09:50:09;2.35;;;1.10;;
55312;SDS011;46892;45.668;11.756;2024-01-07T09:52:35;2.43;;;1.57;;
55312;SDS011;46892;45.668;11.756;2024-01-07T09:55:03;1.97;;;1.30;;
55312;SDS011;46892;45.668;11.756;2024-01-07T09:57:30;3.17;;;1.80;;
55312;SDS011;46892;45.668;11.756;2024-01-07T09:59:56;3.27;;;1.97;;
55312;SDS011;46892;45.668;11.756;2024-01-07T10:02:22;3.47;;;1.70;;
55312;SDS011;46892;45.668;11.756;2024-01-07T10:04:48;2.93;;;1.70;;
55312;SDS011;46892;45.668;11.756;2024-01-07T10:07:15;3.03;;;1.50;;
55312;SDS011;46892;45.668;11.756;2024-01-07T10:09:41;2.10;;;1.40;;
55312;SDS011;46892;45.668;11.756;2024-01-07T10:12:08;2.90;;;1.53;;
55312;SDS011;46892;45.668;11.756;2024-01-07T10:14:34;3.03;;;1.90;;
55312;SDS011;46892;45.668;11.756;2024-01-07T10:17:00;5.13;;;2.73;;
55312;SDS011;46892;45.668;11.756;2024-01-07T10:19:26;5.43;;;3.43;;
55312;SDS011;46892;45.668;11.756;2024-01-07T10:21:59;4.80;;;2.83;;
55312;SDS011;46892;45.668;11.756;2024-01-07T10:24:41;3.47;;;2.33;;
55312;SDS011;46892;45.668;11.756;2024-01-07T10:27:08;3.90;;;2.47;;
55312;SDS011;46892;45.668;11.756;2024-01-07T10:29:35;2.73;;;1.60;;
55312;SDS011;46892;45.668;11.756;2024-01-07T10:32:01;2.97;;;1.90;;
55312;SDS011;46892;45.668;11.756;2024-01-07T10:34:32;2.40;;;1.63;;
55312;SDS011;46892;45.668;11.756;2024-01-07T10:36:59;3.13;;;2.05;;
55312;SDS011;46892;45.668;11.756;2024-01-07T10:39:26;3.77;;;2.00;;
55312;SDS011;46892;45.668;11.756;2024-01-07T10:41:52;2.70;;;2.27;;
55312;SDS011;46892;45.668;11.756;2024-01-07T10:44:26;5.37;;;3.47;;
55312;SDS011;46892;45.668;11.756;2024-01-07T10:46:55;5.53;;;3.88;;
55312;SDS011;46892;45.668;11.756;2024-01-07T10:49:21;4.87;;;3.60;;
55312;SDS011;46892;45.668;11.756;2024-01-07T10:52:05;6.65;;;4.60;;
55312;SDS011;46892;45.668;11.756;2024-01-07T10:54:34;6.53;;;4.10;;
55312;SDS011;46892;45.668;11.756;2024-01-07T10:57:07;11.33;;;9.13;;
55312;SDS011;46892;45.668;11.756;2024-01-07T10:59:50;6.87;;;5.50;;
55312;SDS011;46892;45.668;11.756;2024-01-07T11:02:18;5.23;;;3.57;;
55312;SDS011;46892;45.668;11.756;2024-01-07T11:04:49;7.73;;;4.90;;
55312;SDS011;46892;45.668;11.756;2024-01-07T11:07:29;6.30;;;3.90;;
55312;SDS011;46892;45.668;11.756;2024-01-07T11:10:08;5.83;;;4.07;;
55312;SDS011;46892;45.668;11.756;2024-01-07T11:12:39;5.50;;;3.77;;
55312;SDS011;46892;45.668;11.756;2024-01-07T11:15:04;7.80;;;5.50;;
55312;SDS011;46892;45.668;11.756;2024-01-07T11:20:21;7.20;;;5.43;;
55312;SDS011;46892;45.668;11.756;2024-01-07T11:22:47;5.83;;;4.37;;
55312;SDS011;46892;45.668;11.756;2024-01-07T11:25:29;7.20;;;5.40;;
55312;SDS011;46892;45.668;11.756;2024-01-07T11:28:02;8.17;;;7.30;;
55312;SDS011;46892;45.668;11.756;2024-01-07T11:30:29;7.80;;;5.40;;
55312;SDS011;46892;45.668;11.756;2024-01-07T11:32:58;9.17;;;5.10;;
55312;SDS011;46892;45.668;11.756;2024-01-07T11:38:18;6.50;;;3.90;;
55312;SDS011;46892;45.668;11.756;2024-01-07T11:40:44;7.30;;;4.40;;
55312;SDS011;46892;45.668;11.756;2024-01-07T11:43:12;7.03;;;2.90;;
55312;SDS011;46892;45.668;11.756;2024-01-07T11:45:37;2.37;;;1.70;;
55312;SDS011;46892;45.668;11.756;2024-01-07T11:48:04;2.50;;;1.53;;
55312;SDS011;46892;45.668;11.756;2024-01-07T11:50:31;3.03;;;2.03;;
55312;SDS011;46892;45.668;11.756;2024-01-07T11:52:59;5.60;;;3.53;;
55312;SDS011;46892;45.668;11.756;2024-01-07T11:55:25;2.50;;;2.00;;
55312;SDS011;46892;45.668;11.756;2024-01-07T11:57:52;1.03;;;0.93;;
55312;SDS011;46892;45.668;11.756;2024-01-07T12:00:18;2.10;;;1.77;;
55312;SDS011;46892;45.668;11.756;2024-01-07T12:02:45;3.03;;;1.67;;
55312;SDS011;46892;45.668;11.756;2024-01-07T12:05:11;3.77;;;2.27;;
55312;SDS011;46892;45.668;11.756;2024-01-07T12:07:40;2.90;;;1.80;;
55312;SDS011;46892;45.668;11.756;2024-01-07T12:10:08;2.00;;;1.50;;
55312;SDS011;46892;45.668;11.756;2024-01-07T12:12:38;1.93;;;1.70;;
55312;SDS011;46892;45.668;11.756;2024-01-07T12:15:11;2.30;;;1.80;;
55312;SDS011;46892;45.668;11.756;2024-01-07T12:17:47;2.13;;;1.60;;
55312;SDS011;46892;45.668;11.756;2024-01-07T12:20:22;2.30;;;1.50;;
55312;SDS011;46892;45.668;11.756;2024-01-07T12:22:54;4.00;;;1.33;;
55312;SDS011;46892;45.668;11.756;2024-01-07T12:25:30;2.00;;;1.27;;
55312;SDS011;46892;45.668;11.756;2024-01-07T12:27:56;2.23;;;1.07;;
55312;SDS011;46892;45.668;11.756;2024-01-07T12:30:24;11.10;;;6.37;;
55312;SDS011;46892;45.668;11.756;2024-01-07T12:32:51;9.80;;;6.17;;
55312;SDS011;46892;45.668;11.756;2024-01-07T12:35:17;10.83;;;7.73;;
55312;SDS011;46892;45.668;11.756;2024-01-07T12:37:43;20.23;;;12.73;;
55312;SDS011;46892;45.668;11.756;2024-01-07T12:40:10;8.90;;;6.80;;
55312;SDS011;46892;45.668;11.756;2024-01-07T12:42:42;3.72;;;2.85;;
55312;SDS011;46892;45.668;11.756;2024-01-07T12:45:14;8.83;;;5.57;;
55312;SDS011;46892;45.668;11.756;2024-01-07T12:47:43;7.07;;;4.57;;
55312;SDS011;46892;45.668;11.756;2024-01-07T12:50:09;1.73;;;1.10;;
55312;SDS011;46892;45.668;11.756;2024-01-07T12:52:37;3.33;;;2.20;;
55312;SDS011;46892;45.668;11.756;2024-01-07T12:55:06;2.53;;;1.50;;
55312;SDS011;46892;45.668;11.756;2024-01-07T12:57:33;1.90;;;1.10;;
55312;SDS011;46892;45.668;11.756;2024-01-07T12:59:59;2.33;;;1.30;;
55312;SDS011;46892;45.668;11.756;2024-01-07T13:02:25;2.00;;;1.40;;
55312;SDS011;46892;45.668;11.756;2024-01-07T13:04:51;2.47;;;1.67;;
55312;SDS011;46892;45.668;11.756;2024-01-07T13:07:17;3.53;;;1.50;;
55312;SDS011;46892;45.668;11.756;2024-01-07T13:09:43;2.33;;;1.80;;
55312;SDS011;46892;45.668;11.756;2024-01-07T13:12:11;2.97;;;1.97;;
55312;SDS011;46892;45.668;11.756;2024-01-07T13:14:37;3.33;;;1.77;;
55312;SDS011;46892;45.668;11.756;2024-01-07T13:17:03;5.07;;;2.40;;
55312;SDS011;46892;45.668;11.756;2024-01-07T13:19:29;3.03;;;1.87;;
55312;SDS011;46892;45.668;11.756;2024-01-07T13:21:55;7.33;;;2.27;;
55312;SDS011;46892;45.668;11.756;2024-01-07T13:24:23;4.33;;;2.07;;
55312;SDS011;46892;45.668;11.756;2024-01-07T13:26:53;5.45;;;2.90;;
55312;SDS011;46892;45.668;11.756;2024-01-07T13:29:18;29.07;;;23.03;;
55312;SDS011;46892;45.668;11.756;2024-01-07T13:31:44;18.43;;;14.10;;
55312;SDS011;46892;45.668;11.756;2024-01-07T13:34:10;17.93;;;11.83;;
55312;SDS011;46892;45.668;11.756;2024-01-07T13:36:35;13.30;;;10.07;;
55312;SDS011;46892;45.668;11.756;2024-01-07T13:39:03;12.10;;;8.83;;
55312;SDS011;46892;45.668;11.756;2024-01-07T13:41:32;7.67;;;5.77;;
55312;SDS011;46892;45.668;11.756;2024-01-07T13:44:04;7.30;;;4.83;;
55312;SDS011;46892;45.668;11.756;2024-01-07T13:46:45;5.97;;;4.27;;
55312;SDS011;46892;45.668;11.756;2024-01-07T13:49:17;9.10;;;5.30;;
55312;SDS011;46892;45.668;11.756;2024-01-07T13:51:43;11.53;;;7.07;;
55312;SDS011;46892;45.668;11.756;2024-01-07T13:54:11;11.10;;;5.80;;
55312;SDS011;46892;45.668;11.756;2024-01-07T13:56:44;12.63;;;7.30;;
55312;SDS011;46892;45.668;11.756;2024-01-07T13:59:10;8.60;;;5.43;;
55312;SDS011;46892;45.668;11.756;2024-01-07T14:01:36;8.13;;;5.27;;
55312;SDS011;46892;45.668;11.756;2024-01-07T14:04:04;8.13;;;4.67;;
55312;SDS011;46892;45.668;11.756;2024-01-07T14:06:30;6.30;;;2.80;;
55312;SDS011;46892;45.668;11.756;2024-01-07T14:08:56;5.87;;;3.20;;
55312;SDS011;46892;45.668;11.756;2024-01-07T14:11:22;6.80;;;3.57;;
55312;SDS011;46892;45.668;11.756;2024-01-07T14:13:48;5.33;;;3.30;;
55312;SDS011;46892;45.668;11.756;2024-01-07T14:16:14;5.83;;;3.57;;
55312;SDS011;46892;45.668;11.756;2024-01-07T14:18:40;6.80;;;3.63;;
55312;SDS011;46892;45.668;11.756;2024-01-07T14:21:06;7.30;;;4.20;;
55312;SDS011;46892;45.668;11.756;2024-01-07T14:23:33;4.57;;;3.00;;
55312;SDS011;46892;45.668;11.756;2024-01-07T14:25:59;7.10;;;4.40;;
55312;SDS011;46892;45.668;11.756;2024-01-07T14:28:25;5.70;;;3.73;;
55312;SDS011;46892;45.668;11.756;2024-01-07T14:30:51;5.60;;;3.33;;
55312;SDS011;46892;45.668;11.756;2024-01-07T14:33:16;5.53;;;3.50;;
55312;SDS011;46892;45.668;11.756;2024-01-07T14:35:42;3.93;;;2.67;;